Time;durP1;ratioP1;P1;durP2;ratioP2;P2;SDS_P1;SDS_P2;PMS_P1;PMS_P2;Temp;Humidity;BMP_temperature;BMP_pressure;BME280_temperature;BME280_humidity;BME280_pressure;Samples;Min_cycle;Max_cycle;Signal;HPM_P1;HPM_P2
2023/03/09 00:01:39;;;;;;;68.05;27.08;;;;;;;-0.41;100.00;99058.78;5083837;28;20028;-76
2023/03/09 00:04:05;;;;;;;64.82;27.55;;;;;;;-0.44;100.00;99053.69;5093245;28;20069;-76
2023/03/09 00:06:31;;;;;;;64.55;26.92;;;;;;;-0.43;100.00;99040.03;5093299;28;20038;-76
2023/03/09 00:08:56;;;;;;;64.55;27.40;;;;;;;-0.43;100.00;99032.34;5092498;28;20024;-76
2023/03/09 00:11:22;;;;;;;65.72;27.05;;;;;;;-0.47;100.00;99034.09;5083658;28;20031;-76
2023/03/09 00:13:48;;;;;;;62.72;26.65;;;;;;;-0.44;100.00;99048.56;5092970;28;20028;-76
2023/03/09 00:16:20;;;;;;;62.85;25.83;;;;;;;-0.42;100.00;99041.75;5081938;28;20032;-76
2023/03/09 00:18:46;;;;;;;61.67;26.33;;;;;;;-0.41;100.00;99008.44;5073416;28;20032;-76
2023/03/09 00:21:14;;;;;;;66.28;27.50;;;;;;;-0.45;100.00;99006.78;5091569;28;20531;-76
2023/03/09 00:23:41;;;;;;;65.30;25.83;;;;;;;-0.49;100.00;99041.78;5086398;28;20100;-76
2023/03/09 00:26:09;;;;;;;70.65;27.73;;;;;;;-0.47;100.00;99065.66;5089561;28;20031;-77
2023/03/09 00:28:34;;;;;;;73.55;31.52;;;;;;;-0.46;100.00;99081.84;5092613;28;20059;-76
2023/03/09 00:31:04;;;;;;;66.72;28.00;;;;;;;-0.47;100.00;99086.13;5092551;28;20020;-76
2023/03/09 00:33:30;;;;;;;66.65;27.05;;;;;;;-0.45;100.00;99078.44;5084646;28;20036;-76
2023/03/09 00:35:55;;;;;;;68.68;26.45;;;;;;;-0.45;100.00;99081.00;5077085;28;20114;-76
2023/03/09 00:38:20;;;;;;;69.43;26.58;;;;;;;-0.41;100.00;99099.75;5076519;28;20032;-76
2023/03/09 00:40:46;;;;;;;69.30;26.73;;;;;;;-0.46;100.00;99089.53;5083462;28;20059;-76
2023/03/09 00:43:11;;;;;;;68.20;26.90;;;;;;;-0.44;100.00;99094.66;5084502;28;20510;-76
2023/03/09 00:45:36;;;;;;;69.57;26.35;;;;;;;-0.43;100.00;99101.47;5071011;28;20025;-76
2023/03/09 00:48:02;;;;;;;67.07;26.30;;;;;;;-0.43;100.00;99097.19;5075915;28;20021;-77
2023/03/09 00:50:27;;;;;;;74.05;28.75;;;;;;;-0.40;100.00;99101.44;5085271;28;20024;-79
2023/03/09 00:52:52;;;;;;;72.05;28.08;;;;;;;-0.45;100.00;99103.22;5083173;28;20020;-79
2023/03/09 00:55:18;;;;;;;74.70;28.63;;;;;;;-0.42;100.00;99109.16;5092623;28;20028;-77
2023/03/09 00:57:43;;;;;;;73.20;28.60;;;;;;;-0.42;100.00;99109.16;5091852;28;20051;-77
2023/03/09 01:00:10;;;;;;;77.85;31.58;;;;;;;-0.45;100.00;99123.69;5092074;28;20768;-77
2023/03/09 01:02:35;;;;;;;69.80;28.52;;;;;;;-0.47;100.00;99136.47;5092368;28;20111;-80
2023/03/09 01:05:01;;;;;;;70.88;28.27;;;;;;;-0.44;100.00;99130.50;5085331;28;20107;-79
2023/03/09 01:07:28;;;;;;;72.45;29.17;;;;;;;-0.46;100.00;99138.19;5087951;28;20390;-80
2023/03/09 01:09:53;;;;;;;69.78;27.65;;;;;;;-0.42;100.00;99157.81;5092751;28;20023;-79
2023/03/09 01:12:19;;;;;;;70.07;27.17;;;;;;;-0.43;100.00;99174.00;5091792;28;20422;-79
2023/03/09 01:14:44;;;;;;;70.00;28.48;;;;;;;-0.47;100.00;99193.66;5091813;28;20099;-79
2023/03/09 01:17:09;;;;;;;66.55;27.40;;;;;;;-0.40;100.00;99193.63;5092395;28;20077;-79
2023/03/09 01:19:35;;;;;;;71.55;26.95;;;;;;;-0.39;100.00;99179.94;5091534;28;20020;-79
2023/03/09 01:22:00;;;;;;;66.75;27.20;;;;;;;-0.39;100.00;99178.28;5092495;28;20397;-76
2023/03/09 01:24:26;;;;;;;71.45;26.45;;;;;;;-0.40;100.00;99178.25;5088094;28;20048;-76
2023/03/09 01:26:52;;;;;;;70.50;27.90;;;;;;;-0.37;100.00;99180.81;5091342;28;20039;-76
2023/03/09 01:29:18;;;;;;;74.47;28.50;;;;;;;-0.38;100.00;99177.41;5092247;28;20111;-77
2023/03/09 01:31:43;;;;;;;66.07;26.73;;;;;;;-0.43;100.00;99189.38;5092152;28;20070;-77
2023/03/09 01:34:12;;;;;;;71.80;26.42;;;;;;;-0.37;100.00;99206.41;5091930;28;20025;-76
2023/03/09 01:36:39;;;;;;;68.15;26.85;;;;;;;-0.38;100.00;99220.09;5091541;28;20383;-77
2023/03/09 01:39:04;;;;;;;62.78;25.08;;;;;;;-0.37;100.00;99214.09;5092166;28;20028;-77
2023/03/09 01:41:30;;;;;;;67.13;26.00;;;;;;;-0.37;100.00;99219.22;5086922;28;20043;-76
2023/03/09 01:43:56;;;;;;;67.85;25.58;;;;;;;-0.41;100.00;99203.03;5092211;28;20482;-77
2023/03/09 01:46:38;;;;;;;64.82;25.40;;;;;;;-0.39;100.00;99205.56;5086504;28;20036;-77
2023/03/09 01:49:16;;;;;;;66.70;24.90;;;;;;;-0.36;100.00;99210.66;5077308;28;20475;-76
2023/03/09 01:51:45;;;;;;;64.72;25.38;;;;;;;-0.36;100.00;99210.66;5088787;28;20031;-77
2023/03/09 01:54:15;;;;;;;71.45;25.92;;;;;;;-0.36;100.00;99219.22;5075175;28;20117;-77
2023/03/09 01:56:42;;;;;;;70.28;24.77;;;;;;;-0.34;100.00;99227.72;5080628;28;20017;-77
2023/03/09 01:59:10;;;;;;;65.72;25.85;;;;;;;-0.37;100.00;99229.44;5084693;28;20036;-77
2023/03/09 02:01:36;;;;;;;64.65;25.98;;;;;;;-0.38;100.00;99228.59;5085927;28;20036;-76
2023/03/09 02:04:08;;;;;;;65.45;24.10;;;;;;;-0.34;100.00;99235.41;5092649;28;20020;-77
2023/03/09 02:06:34;;;;;;;69.18;24.63;;;;;;;-0.32;100.00;99236.25;5086752;28;20033;-77
2023/03/09 02:09:08;;;;;;;66.82;26.40;;;;;;;-0.31;100.00;99255.88;5091221;28;20047;-77
2023/03/09 02:11:34;;;;;;;69.78;27.08;;;;;;;-0.33;100.00;99252.50;5095449;28;20031;-77
2023/03/09 02:14:01;;;;;;;70.60;26.38;;;;;;;-0.44;100.00;99228.63;5095345;28;20020;-77
2023/03/09 02:16:26;;;;;;;71.28;27.25;;;;;;;-0.34;100.00;99244.81;5086521;28;20043;-77
2023/03/09 02:18:52;;;;;;;66.45;25.83;;;;;;;-0.33;100.00;99247.38;5085876;28;20464;-77
2023/03/09 02:21:24;;;;;;;68.75;25.40;;;;;;;-0.32;100.00;99237.97;5094547;28;20050;-77
2023/03/09 02:24:20;;;;;;;69.10;26.02;;;;;;;-0.32;100.00;99238.81;5094803;28;20107;-77
2023/03/09 02:27:19;;;;;;;73.07;26.88;;;;;;;-0.32;100.00;99228.59;5071500;28;20115;-77
2023/03/09 02:29:46;;;;;;;70.40;25.55;;;;;;;-0.31;100.00;99240.50;5064204;28;20028;-77
2023/03/09 02:32:11;;;;;;;72.95;27.23;;;;;;;-0.31;100.00;99243.06;5089864;28;20055;-77
2023/03/09 02:34:36;;;;;;;73.65;27.10;;;;;;;-0.30;100.00;99252.44;5091882;28;20039;-76
2023/03/09 02:37:02;;;;;;;70.68;27.33;;;;;;;-0.30;100.00;99257.56;5094839;28;20103;-77
2023/03/09 02:39:44;;;;;;;80.95;28.80;;;;;;;-0.31;100.00;99268.69;5093941;28;20028;-77
2023/03/09 02:42:09;;;;;;;71.30;26.88;;;;;;;-0.32;100.00;99267.00;5073150;28;20063;-76
2023/03/09 02:44:35;;;;;;;78.57;27.50;;;;;;;-0.31;100.00;99278.94;5094214;28;20056;-76
2023/03/09 02:47:06;;;;;;;79.32;27.83;;;;;;;-0.33;100.00;99264.44;5091813;28;20027;-77
2023/03/09 02:49:31;;;;;;;82.10;28.60;;;;;;;-0.30;100.00;99267.81;5073567;28;20052;-77
2023/03/09 02:51:57;;;;;;;80.47;28.05;;;;;;;-0.27;100.00;99272.94;5089931;28;20123;-76
2023/03/09 02:54:22;;;;;;;79.10;30.95;;;;;;;-0.26;100.00;99279.78;5093568;28;20103;-77
2023/03/09 02:56:47;;;;;;;79.22;27.67;;;;;;;-0.27;100.00;99277.19;5087641;28;20024;-76
2023/03/09 02:59:13;;;;;;;84.65;29.83;;;;;;;-0.26;100.00;99264.41;5094143;28;20044;-77
2023/03/09 03:01:38;;;;;;;85.32;30.17;;;;;;;-0.27;100.00;99254.16;5080327;28;20483;-77
2023/03/09 03:04:03;;;;;;;85.55;30.38;;;;;;;-0.29;100.00;99258.44;5089800;28;20036;-77
2023/03/09 03:06:29;;;;;;;83.95;29.02;;;;;;;-0.28;100.00;99267.81;5087608;28;20044;-77
2023/03/09 03:08:54;;;;;;;85.95;29.48;;;;;;;-0.30;100.00;99272.94;5079548;28;20025;-76
2023/03/09 03:11:19;;;;;;;89.03;30.40;;;;;;;-0.34;100.00;99263.56;5078559;28;20065;-76
2023/03/09 03:13:44;;;;;;;83.68;30.38;;;;;;;-0.29;100.00;99273.81;5076607;28;20035;-77
2023/03/09 03:16:10;;;;;;;86.35;29.95;;;;;;;-0.30;100.00;99262.69;5086800;28;20047;-77
2023/03/09 03:18:35;;;;;;;93.45;33.00;;;;;;;-0.31;100.00;99273.81;5076266;28;20036;-76
2023/03/09 03:21:00;;;;;;;90.03;30.50;;;;;;;-0.31;100.00;99273.81;5090975;28;20490;-76
2023/03/09 03:23:26;;;;;;;81.88;30.38;;;;;;;-0.31;100.00;99271.25;5081094;28;20031;-76
2023/03/09 03:25:51;;;;;;;85.28;30.27;;;;;;;-0.30;100.00;99280.63;5087942;28;20376;-77
2023/03/09 03:28:16;;;;;;;90.50;30.65;;;;;;;-0.29;100.00;99287.47;5093843;28;20110;-77
2023/03/09 03:30:42;;;;;;;86.38;30.65;;;;;;;-0.29;100.00;99295.16;5093852;28;20028;-76
2023/03/09 03:33:07;;;;;;;88.18;29.35;;;;;;;-0.30;100.00;99303.66;5087312;28;20024;-76
2023/03/09 03:35:32;;;;;;;87.38;32.05;;;;;;;-0.28;100.00;99319.03;5072254;28;20095;-76
2023/03/09 03:38:03;;;;;;;87.88;31.25;;;;;;;-0.28;100.00;99327.56;5073305;28;20016;-77
2023/03/09 03:40:29;;;;;;;87.78;30.67;;;;;;;-0.27;100.00;99359.16;5072092;28;20092;-76
2023/03/09 03:42:54;;;;;;;86.57;29.35;;;;;;;-0.27;100.00;99344.63;5073534;28;20495;-77
2023/03/09 03:45:20;;;;;;;88.55;31.20;;;;;;;-0.26;100.00;99346.38;5073495;28;20740;-77
2023/03/09 03:47:46;;;;;;;98.50;31.83;;;;;;;-0.34;100.00;99330.16;5072950;28;20146;-77
2023/03/09 03:50:12;;;;;;;98.60;31.85;;;;;;;-0.39;100.00;99325.91;5073228;28;20044;-77
2023/03/09 03:52:38;;;;;;;96.10;32.58;;;;;;;-0.27;100.00;99344.63;5073133;28;20020;-77
2023/03/09 03:55:03;;;;;;;89.05;31.08;;;;;;;-0.28;100.00;99332.69;5073090;28;20145;-77
2023/03/09 03:57:29;;;;;;;93.90;31.38;;;;;;;-0.28;100.00;99345.50;5072982;28;20032;-77
2023/03/09 03:59:54;;;;;;;91.25;32.20;;;;;;;-0.32;100.00;99341.25;5082516;28;20051;-77
2023/03/09 04:02:19;;;;;;;91.50;31.52;;;;;;;-0.36;100.00;99334.44;5071834;28;20032;-77
2023/03/09 04:04:45;;;;;;;96.93;32.90;;;;;;;-0.27;100.00;99359.16;5072175;28;20024;-77
2023/03/09 04:07:10;;;;;;;96.50;31.65;;;;;;;-0.28;100.00;99347.22;5071592;28;20028;-77
2023/03/09 04:09:35;;;;;;;99.15;34.22;;;;;;;-0.31;100.00;99352.34;5071085;28;20115;-77
2023/03/09 04:12:00;;;;;;;102.47;33.13;;;;;;;-0.29;100.00;99348.09;5071128;28;20074;-77
2023/03/09 04:14:26;;;;;;;99.03;34.00;;;;;;;-0.34;100.00;99348.09;5069034;28;20375;-76
2023/03/09 04:16:51;;;;;;;103.95;32.42;;;;;;;-0.31;100.00;99358.31;5068191;28;20071;-76
2023/03/09 04:19:16;;;;;;;102.85;35.80;;;;;;;-0.31;100.00;99363.44;5071294;28;20095;-77
2023/03/09 04:21:42;;;;;;;100.80;35.72;;;;;;;-0.31;100.00;99368.56;5070496;28;20508;-77
2023/03/09 04:24:07;;;;;;;102.85;33.67;;;;;;;-0.28;100.00;99367.72;5071225;28;20067;-77
2023/03/09 04:26:33;;;;;;;106.32;34.28;;;;;;;-0.35;100.00;99372.00;5070290;28;20132;-80
2023/03/09 04:28:58;;;;;;;115.80;35.95;;;;;;;-0.28;100.00;99383.91;5070824;28;20035;-80
2023/03/09 04:31:23;;;;;;;120.68;36.58;;;;;;;-0.28;100.00;99383.91;5069539;28;20040;-79
2023/03/09 04:33:48;;;;;;;109.47;35.80;;;;;;;-0.29;100.00;99387.34;5069868;28;20528;-79
2023/03/09 04:36:14;;;;;;;114.72;37.03;;;;;;;-0.36;100.00;99370.31;5070443;28;20036;-77
2023/03/09 04:38:39;;;;;;;109.30;36.20;;;;;;;-0.31;100.00;99378.81;5069740;28;20041;-76
2023/03/09 04:41:05;;;;;;;115.80;35.90;;;;;;;-0.31;100.00;99383.94;5069630;28;20098;-77
2023/03/09 04:43:33;;;;;;;110.40;36.28;;;;;;;-0.30;100.00;99385.63;5070316;28;20020;-77
2023/03/09 04:45:58;;;;;;;115.53;36.08;;;;;;;-0.27;100.00;99400.97;5070774;28;20039;-77
2023/03/09 04:48:23;;;;;;;122.65;36.25;;;;;;;-0.26;100.00;99412.94;5070073;28;20036;-77
2023/03/09 04:50:49;;;;;;;119.85;37.25;;;;;;;-0.25;100.00;99409.53;5070911;28;20081;-77
2023/03/09 04:53:14;;;;;;;125.05;38.72;;;;;;;-0.26;100.00;99402.72;5070684;28;20036;-77
2023/03/09 04:55:39;;;;;;;130.90;40.03;;;;;;;-0.37;100.00;99394.19;5068911;28;20476;-77
2023/03/09 04:58:04;;;;;;;121.43;38.20;;;;;;;-0.31;100.00;99412.09;5069114;28;20033;-77
2023/03/09 05:00:32;;;;;;;122.95;38.47;;;;;;;-0.31;100.00;99418.94;5023079;28;1048643;-76
2023/03/09 05:02:58;;;;;;;128.43;38.42;;;;;;;-0.31;100.00;99421.50;5070685;28;20053;-77
2023/03/09 05:05:23;;;;;;;135.07;39.83;;;;;;;-0.31;100.00;99421.50;5070349;28;20059;-76
2023/03/09 05:07:51;;;;;;;127.97;40.40;;;;;;;-0.31;100.00;99432.59;5070971;28;20056;-76
2023/03/09 05:10:16;;;;;;;125.00;40.33;;;;;;;-0.33;100.00;99428.31;5069825;28;20028;-76
2023/03/09 05:12:42;;;;;;;126.50;40.22;;;;;;;-0.31;100.00;99440.25;5070067;28;20529;-77
2023/03/09 05:15:08;;;;;;;130.68;39.47;;;;;;;-0.38;100.00;99430.91;5070809;28;20116;-76
2023/03/09 05:17:34;;;;;;;134.73;40.97;;;;;;;-0.31;100.00;99457.34;5067798;28;20476;-77
2023/03/09 05:19:59;;;;;;;128.45;38.83;;;;;;;-0.31;100.00;99467.59;5066715;28;20111;-77
2023/03/09 05:22:25;;;;;;;143.63;41.45;;;;;;;-0.30;100.00;99474.41;5069567;28;20115;-76
2023/03/09 05:24:50;;;;;;;139.43;41.47;;;;;;;-0.41;100.00;99453.94;5073720;28;20067;-76
2023/03/09 05:27:15;;;;;;;138.18;40.97;;;;;;;-0.31;100.00;99465.03;5075867;28;20070;-77
2023/03/09 05:29:41;;;;;;;140.55;40.08;;;;;;;-0.31;100.00;99460.75;5076203;28;20093;-77
2023/03/09 05:32:06;;;;;;;141.85;42.08;;;;;;;-0.29;100.00;99456.50;5075694;28;20021;-77
2023/03/09 05:34:32;;;;;;;144.95;41.17;;;;;;;-0.31;100.00;99460.75;5075413;28;20025;-76
2023/03/09 05:36:57;;;;;;;136.70;42.55;;;;;;;-0.30;100.00;99474.41;5075984;28;20020;-77
2023/03/09 05:39:22;;;;;;;137.98;43.33;;;;;;;-0.38;100.00;99469.31;5074876;28;20082;-77
2023/03/09 05:41:48;;;;;;;150.77;42.25;;;;;;;-0.29;100.00;99486.38;5075557;28;20492;-77
2023/03/09 05:44:13;;;;;;;147.20;43.53;;;;;;;-0.28;100.00;99473.56;5076138;28;20031;-77
2023/03/09 05:46:39;;;;;;;145.50;42.45;;;;;;;-0.29;100.00;99458.22;5074948;28;20028;-77
2023/03/09 05:49:04;;;;;;;142.43;43.63;;;;;;;-0.27;100.00;99467.56;5075637;28;20024;-77
2023/03/09 05:51:30;;;;;;;148.52;44.28;;;;;;;-0.29;100.00;99458.22;5075468;28;20032;-77
2023/03/09 05:53:55;;;;;;;169.52;44.47;;;;;;;-0.29;100.00;99465.88;5075330;28;20017;-77
2023/03/09 05:56:20;;;;;;;149.77;43.85;;;;;;;-0.26;100.00;99473.56;5076113;28;20056;-77
2023/03/09 05:58:50;;;;;;;145.75;43.33;;;;;;;-0.26;100.00;99474.41;5082380;28;20482;-77
2023/03/09 06:01:20;;;;;;;157.18;44.92;;;;;;;-0.25;100.00;99482.94;5075222;28;20036;-77
2023/03/09 06:03:45;;;;;;;150.80;45.80;;;;;;;-0.26;100.00;99494.06;5074967;28;20037;-77
2023/03/09 06:06:11;;;;;;;153.98;45.25;;;;;;;-0.24;100.00;99489.78;5075608;28;20078;-77
2023/03/09 06:08:36;;;;;;;152.93;43.78;;;;;;;-0.22;100.00;99493.19;5074523;28;20024;-76
2023/03/09 06:11:01;;;;;;;153.60;45.20;;;;;;;-0.26;100.00;99483.81;5075701;28;20023;-77
2023/03/09 06:13:27;;;;;;;149.93;44.50;;;;;;;-0.19;100.00;99492.34;5074912;28;20464;-77
2023/03/09 06:15:53;;;;;;;139.13;42.88;;;;;;;-0.17;100.00;99498.28;5074523;28;20110;-77
2023/03/09 06:18:18;;;;;;;142.35;42.75;;;;;;;-0.19;100.00;99490.63;5075266;28;20020;-77
2023/03/09 06:20:44;;;;;;;161.35;44.92;;;;;;;-0.17;100.00;99506.84;5061911;28;20048;-77
2023/03/09 06:23:10;;;;;;;166.18;44.63;;;;;;;-0.15;100.00;99511.97;5075195;28;20103;-77
2023/03/09 06:25:36;;;;;;;142.65;43.90;;;;;;;-0.14;100.00;99509.38;5073326;28;20055;-76
2023/03/09 06:28:02;;;;;;;159.15;45.30;;;;;;;-0.10;100.00;99513.69;5074641;28;20033;-77
2023/03/09 06:30:28;;;;;;;146.77;44.30;;;;;;;-0.09;100.00;99515.38;5073978;28;20036;-77
2023/03/09 06:32:54;;;;;;;153.23;44.00;;;;;;;-0.08;100.00;99516.22;5074801;28;20012;-77
2023/03/09 06:35:19;;;;;;;157.30;44.95;;;;;;;-0.03;100.00;99522.22;5074163;28;20016;-77
2023/03/09 06:37:45;;;;;;;163.32;48.22;;;;;;;-0.01;100.00;99523.03;5074644;28;20459;-77
2023/03/09 06:40:12;;;;;;;162.18;47.55;;;;;;;0.01;100.00;99523.91;5074781;28;20017;-77
2023/03/09 06:42:38;;;;;;;154.20;46.05;;;;;;;-0.08;100.00;99523.91;5073043;28;20416;-77
2023/03/09 06:45:04;;;;;;;162.45;46.53;;;;;;;0.02;100.00;99535.84;5073087;28;20028;-77
2023/03/09 06:47:29;;;;;;;160.70;45.75;;;;;;;0.04;100.00;99552.09;5072894;28;20077;-77
2023/03/09 06:49:57;;;;;;;155.32;46.22;;;;;;;-0.01;100.00;99546.09;5073376;28;20472;-76
2023/03/09 06:52:23;;;;;;;148.90;44.20;;;;;;;0.01;100.00;99554.66;5072342;28;20020;-77
2023/03/09 06:54:49;;;;;;;156.32;45.78;;;;;;;0.03;100.00;99565.72;5074159;28;20024;-76
2023/03/09 06:57:14;;;;;;;152.32;46.40;;;;;;;0.05;100.00;99570.88;5072283;28;20039;-76
2023/03/09 06:59:39;;;;;;;152.60;44.53;;;;;;;0.02;100.00;99579.41;5073680;28;20036;-77
2023/03/09 07:02:05;;;;;;;169.38;46.47;;;;;;;0.03;100.00;99563.16;5074298;28;20094;-76
2023/03/09 07:04:33;;;;;;;159.40;46.47;;;;;;;0.11;100.00;99593.94;5073148;28;20472;-76
2023/03/09 07:06:58;;;;;;;154.95;46.95;;;;;;;0.05;100.00;99587.09;5074062;28;20036;-77
2023/03/09 07:09:23;;;;;;;155.25;47.10;;;;;;;0.09;100.00;99604.16;5074654;28;20090;-76
2023/03/09 07:11:49;;;;;;;156.65;46.25;;;;;;;0.10;100.00;99611.03;5073523;28;20035;-76
2023/03/09 07:14:14;;;;;;;153.82;45.88;;;;;;;0.09;100.00;99600.75;5074010;28;20024;-76
2023/03/09 07:16:40;;;;;;;160.43;47.97;;;;;;;0.08;100.00;99612.72;5073876;28;20063;-76
2023/03/09 07:19:05;;;;;;;157.50;46.30;;;;;;;0.04;100.00;99618.72;5073190;28;20045;-76
2023/03/09 07:21:33;;;;;;;148.27;43.92;;;;;;;0.05;100.00;99633.22;5072992;28;20534;-76
2023/03/09 07:23:58;;;;;;;148.95;46.17;;;;;;;0.10;100.00;99640.88;5073558;28;20025;-77
2023/03/09 07:26:25;;;;;;;148.35;45.70;;;;;;;0.12;100.00;99631.50;5073730;28;20032;-77
2023/03/09 07:28:50;;;;;;;143.80;46.58;;;;;;;0.15;100.00;99640.03;5073303;28;20429;-77
2023/03/09 07:31:15;;;;;;;166.23;47.40;;;;;;;0.18;100.00;99639.19;5071797;28;20132;-76
2023/03/09 07:33:41;;;;;;;160.40;48.13;;;;;;;0.21;100.00;99646.88;5071277;28;20020;-76
2023/03/09 07:36:08;;;;;;;148.75;46.05;;;;;;;0.20;100.00;99645.19;5073603;28;20111;-77
2023/03/09 07:38:34;;;;;;;149.73;46.50;;;;;;;0.22;100.00;99644.31;5067902;28;20024;-77
2023/03/09 07:41:00;;;;;;;152.93;47.10;;;;;;;0.27;100.00;99658.84;5068406;28;20482;-77
2023/03/09 07:43:27;;;;;;;157.02;48.55;;;;;;;0.22;100.00;99667.38;5073852;28;20029;-77
2023/03/09 07:45:52;;;;;;;148.70;47.67;;;;;;;0.24;100.00;99675.09;5072200;28;20032;-77
2023/03/09 07:48:18;;;;;;;151.02;46.50;;;;;;;0.22;100.00;99677.63;5072948;28;20012;-77
2023/03/09 07:50:43;;;;;;;154.13;46.85;;;;;;;0.23;100.00;99674.22;5073423;28;20430;-77
2023/03/09 07:53:09;;;;;;;153.50;46.47;;;;;;;0.26;100.00;99673.34;5072963;28;20085;-77
2023/03/09 07:55:35;;;;;;;153.00;44.35;;;;;;;0.34;100.00;99686.19;5072027;28;20540;-77
2023/03/09 07:58:01;;;;;;;134.88;43.55;;;;;;;0.37;100.00;99678.50;5076264;28;20047;-76
2023/03/09 08:00:28;;;;;;;146.90;46.35;;;;;;;0.37;100.00;99676.78;5074951;28;20515;-77
2023/03/09 08:02:53;;;;;;;158.13;46.25;;;;;;;0.41;100.00;99682.75;5073168;28;20029;-76
2023/03/09 08:05:19;;;;;;;144.20;42.58;;;;;;;0.43;100.00;99686.19;5073196;28;20086;-76
2023/03/09 08:07:46;;;;;;;144.63;44.85;;;;;;;0.45;100.00;99681.91;5072482;28;20042;-76
2023/03/09 08:10:13;;;;;;;141.25;42.83;;;;;;;0.53;100.00;99698.13;5073030;28;20021;-76
2023/03/09 08:12:39;;;;;;;148.52;46.42;;;;;;;0.58;100.00;99698.13;5068655;28;20027;-76
2023/03/09 08:15:05;;;;;;;143.40;43.72;;;;;;;0.62;100.00;99697.25;5068385;28;20028;-76
2023/03/09 08:17:30;;;;;;;133.35;43.38;;;;;;;0.65;100.00;99698.13;5070847;28;20039;-77
2023/03/09 08:19:55;;;;;;;140.40;43.53;;;;;;;0.70;100.00;99711.78;5073277;28;20013;-77
2023/03/09 08:22:21;;;;;;;132.45;42.95;;;;;;;0.77;100.00;99714.34;5072242;28;20051;-77
2023/03/09 08:24:46;;;;;;;137.15;43.38;;;;;;;0.80;100.00;99714.34;5072835;28;20020;-76
2023/03/09 08:27:11;;;;;;;127.70;41.80;;;;;;;0.81;100.00;99716.03;5070312;28;20039;-76
2023/03/09 08:29:37;;;;;;;130.30;40.20;;;;;;;0.85;100.00;99713.50;5071988;28;20089;-76
2023/03/09 08:32:07;;;;;;;136.88;42.22;;;;;;;0.94;100.00;99715.16;5072639;28;20028;-76
2023/03/09 08:34:33;;;;;;;143.35;42.35;;;;;;;1.01;100.00;99721.13;5070598;28;20892;-76
2023/03/09 08:36:58;;;;;;;126.03;40.65;;;;;;;1.01;100.00;99726.25;5072980;28;20110;-76
2023/03/09 08:39:23;;;;;;;118.10;39.22;;;;;;;0.94;100.00;99740.81;5072733;28;20036;-76
2023/03/09 08:41:49;;;;;;;115.80;39.33;;;;;;;0.88;100.00;99745.97;5071810;28;20032;-76
2023/03/09 08:44:14;;;;;;;116.30;39.03;;;;;;;0.88;100.00;99745.97;5068822;28;20507;-76
2023/03/09 08:46:39;;;;;;;119.95;40.80;;;;;;;0.92;100.00;99748.53;5071962;28;20032;-76
2023/03/09 08:49:05;;;;;;;122.40;40.00;;;;;;;1.02;100.00;99736.53;5068253;28;20485;-77
2023/03/09 08:51:34;;;;;;;124.28;40.15;;;;;;;1.09;100.00;99735.66;5067395;28;20103;-77
2023/03/09 08:54:00;;;;;;;139.63;42.67;;;;;;;1.23;100.00;99766.41;5058568;28;20025;-76
2023/03/09 08:56:26;;;;;;;120.28;39.28;;;;;;;1.19;100.00;99766.44;5071070;28;20024;-76
2023/03/09 08:58:51;;;;;;;118.88;39.15;;;;;;;1.10;100.00;99767.31;5076463;28;20496;-76
2023/03/09 09:01:17;;;;;;;107.53;36.97;;;;;;;1.01;100.00;99759.63;5072501;28;20021;-76
2023/03/09 09:03:42;;;;;;;108.95;39.03;;;;;;;1.05;100.00;99762.19;5071774;28;20040;-76
2023/03/09 09:06:14;;;;;;;112.70;37.40;;;;;;;1.07;100.00;99764.75;5072118;28;20021;-76
2023/03/09 09:08:40;;;;;;;109.15;38.60;;;;;;;1.10;100.00;99780.16;5070525;28;20029;-76
2023/03/09 09:11:11;;;;;;;107.65;37.03;;;;;;;1.15;100.00;99787.00;5066216;28;20154;-76
2023/03/09 09:13:40;;;;;;;112.88;38.97;;;;;;;1.16;100.00;99788.69;5070716;28;20532;-77
2023/03/09 09:16:06;;;;;;;111.50;39.72;;;;;;;1.11;100.00;99790.44;5071202;28;20468;-77
2023/03/09 09:18:36;;;;;;;111.32;38.55;;;;;;;1.17;100.00;99794.69;5071267;28;20028;-77
2023/03/09 09:21:07;;;;;;;113.70;38.30;;;;;;;1.21;100.00;99783.56;5069348;28;20142;-76
2023/03/09 09:23:40;;;;;;;113.85;39.40;;;;;;;1.23;100.00;99769.00;5071128;28;20464;-76
2023/03/09 09:26:06;;;;;;;123.97;39.97;;;;;;;1.36;100.00;99783.50;5070871;28;20384;-76
2023/03/09 09:28:32;;;;;;;123.63;40.03;;;;;;;1.40;100.00;99792.91;5068549;28;20029;-76
2023/03/09 09:31:03;;;;;;;130.52;40.80;;;;;;;1.44;100.00;99786.06;5070931;28;20373;-76
2023/03/09 09:33:31;;;;;;;126.43;40.50;;;;;;;1.47;100.00;99790.31;5071539;28;20029;-76
2023/03/09 09:36:09;;;;;;;120.00;42.80;;;;;;;1.45;100.00;99794.63;5069687;28;20089;-79
2023/03/09 09:38:34;;;;;;;113.43;41.10;;;;;;;1.43;100.00;99815.16;5069293;28;20028;-78
2023/03/09 09:41:05;;;;;;;103.13;38.90;;;;;;;1.44;100.00;99808.31;5069899;28;20028;-79
2023/03/09 09:43:31;;;;;;;120.07;39.67;;;;;;;1.53;100.00;99816.00;5081971;28;20029;-79
2023/03/09 09:45:59;;;;;;;117.68;40.75;;;;;;;1.61;100.00;99802.28;5069721;28;20051;-78
2023/03/09 09:48:25;;;;;;;119.00;41.92;;;;;;;1.74;100.00;99807.38;5069430;28;20040;-78
2023/03/09 09:51:09;;;;;;;118.60;41.85;;;;;;;1.83;100.00;99807.31;5069412;28;20025;-84
2023/03/09 09:54:03;;;;;;;109.70;40.15;;;;;;;1.75;100.00;99811.63;5066772;28;20033;-87
2023/03/09 09:56:55;;;;;;;112.25;39.63;;;;;;;1.80;100.00;99808.19;5063742;28;20106;-88
2023/03/09 09:59:30;;;;;;;113.85;39.75;;;;;;;1.78;100.00;99803.91;5069944;28;20029;-88
2023/03/09 10:02:01;;;;;;;118.50;38.70;;;;;;;1.90;100.00;99809.00;5067507;28;20055;-79
2023/03/09 10:04:52;;;;;;;111.13;39.15;;;;;;;1.96;100.00;99813.25;5066643;28;20082;-78
2023/03/09 10:07:20;;;;;;;109.47;39.60;;;;;;;1.97;100.00;99808.09;5069869;28;20086;-81
2023/03/09 10:09:54;;;;;;;118.13;39.83;;;;;;;2.06;100.00;99799.47;5070614;28;20024;-80
2023/03/09 10:12:19;;;;;;;;;;;;;;;2.18;100.00;99807.13;5075232;28;20024;-81
2023/03/09 10:14:54;;;;;;;93.90;35.65;;;;;;;2.17;100.00;99807.16;5074238;28;19958;-80
2023/03/09 10:17:39;;;;;;;96.95;34.78;;;;;;;2.29;100.00;99807.94;5075210;28;20487;-82
2023/03/09 10:20:29;;;;;;;94.25;33.47;;;;;;;2.34;100.00;99800.19;5074191;28;20041;-78
2023/03/09 10:22:56;;;;;;;92.32;35.05;;;;;;;2.39;100.00;99808.72;5066119;28;20032;-77
2023/03/09 10:25:24;;;;;;;89.80;33.60;;;;;;;2.39;100.00;99819.03;5075466;28;20107;-78
2023/03/09 10:28:07;;;;;;;91.82;33.90;;;;;;;2.36;100.00;99800.19;5073218;28;20021;-79
2023/03/09 10:30:44;;;;;;;87.65;34.97;;;;;;;2.32;100.00;99804.47;5074913;28;20119;-80
2023/03/09 10:33:23;;;;;;;83.05;35.28;;;;;;;2.40;100.00;99804.44;5072012;28;20048;-79
2023/03/09 10:36:08;;;;;;;90.22;35.53;;;;;;;2.44;100.00;99796.66;5074012;28;20078;-79
2023/03/09 10:38:36;;;;;;;87.25;33.40;;;;;;;2.51;100.00;99803.47;5073767;28;20107;-80
2023/03/09 10:41:01;;;;;;;87.85;35.08;;;;;;;2.54;100.00;99803.44;5074359;28;20032;-78
2023/03/09 10:43:35;;;;;;;85.13;33.38;;;;;;;2.51;100.00;99803.47;5072525;28;20029;-80
2023/03/09 10:46:21;;;;;;;83.75;33.90;;;;;;;2.50;100.00;99806.91;5073796;28;20024;-80
2023/03/09 10:49:07;;;;;;;86.25;33.70;;;;;;;2.47;100.00;99816.38;5072898;28;20566;-80
2023/03/09 10:51:38;;;;;;;81.15;34.55;;;;;;;2.44;100.00;99813.81;5070270;28;20055;-82
2023/03/09 10:54:35;;;;;;;79.75;34.15;;;;;;;2.44;100.00;99822.41;5074015;28;20020;-80
2023/03/09 10:57:02;;;;;;;85.72;34.47;;;;;;;2.56;100.00;99804.31;5073025;28;20036;-79
2023/03/09 10:59:29;;;;;;;94.03;35.55;;;;;;;2.68;100.00;99808.53;5067630;28;22155;-78
2023/03/09 11:01:59;;;;;;;88.95;34.88;;;;;;;2.78;100.00;99811.88;5073115;28;20471;-78
2023/03/09 11:04:27;;;;;;;90.05;35.40;;;;;;;2.87;100.00;99806.63;5073014;28;20090;-78
2023/03/09 11:07:20;;;;;;;84.75;34.33;;;;;;;2.99;100.00;99815.97;5071812;28;20035;-78
2023/03/09 11:09:52;;;;;;;89.70;36.05;;;;;;;3.12;100.00;99815.00;5071362;28;20052;-78
2023/03/09 11:12:27;;;;;;;86.88;36.25;;;;;;;3.18;100.00;99816.66;5063267;28;20055;-78